createdAt,value
2018-07-11T00:01:54.095Z,92.10
2018-07-11T00:04:22.263Z,92.10
2018-07-11T00:06:50.445Z,92.00
2018-07-11T00:09:18.626Z,92.10
2018-07-11T00:11:46.855Z,92.30
2018-07-11T00:14:15.060Z,92.30
2018-07-11T00:16:48.606Z,92.40
2018-07-11T00:19:16.809Z,92.40
2018-07-11T00:21:44.998Z,92.10
2018-07-11T00:24:13.209Z,92.20
2018-07-11T00:26:41.396Z,92.60
2018-07-11T00:29:09.551Z,92.30
2018-07-11T00:31:37.749Z,92.20
2018-07-11T00:34:05.937Z,92.20
2018-07-11T00:36:34.093Z,92.20
2018-07-11T00:39:02.273Z,92.40
2018-07-11T00:58:52.021Z,92.80
2018-07-11T01:01:20.599Z,93.20
2018-07-11T01:03:57.122Z,93.10
2018-07-11T01:06:25.341Z,93.20
2018-07-11T01:08:54.137Z,93.40
2018-07-11T01:11:23.244Z,93.40
2018-07-11T01:13:51.553Z,93.20
2018-07-11T01:16:20.436Z,93.50
2018-07-11T01:18:55.910Z,93.70
2018-07-11T01:21:24.091Z,93.80
2018-07-11T01:23:52.291Z,93.60
2018-07-11T01:26:24.352Z,93.50
2018-07-11T01:28:52.651Z,93.80
2018-07-11T01:33:48.960Z,93.70
2018-07-11T01:36:17.212Z,93.60
2018-07-11T01:38:45.602Z,94.00
2018-07-11T01:41:14.004Z,94.00
2018-07-11T01:43:42.434Z,94.00
2018-07-11T01:46:10.635Z,94.10
2018-07-11T01:48:38.806Z,94.10
2018-07-11T01:51:07.054Z,93.90
2018-07-11T01:53:35.238Z,93.80
2018-07-11T01:56:03.432Z,94.30
2018-07-11T01:58:31.680Z,94.40
2018-07-11T02:03:27.889Z,94.10
2018-07-11T02:05:56.120Z,94.20
2018-07-11T02:08:24.843Z,94.40
2018-07-11T02:10:53.155Z,94.20
2018-07-11T02:13:21.367Z,94.10
2018-07-11T02:15:50.265Z,94.10
2018-07-11T02:18:24.355Z,94.20
2018-07-11T02:20:52.863Z,94.20
2018-07-11T02:23:21.172Z,94.20
2018-07-11T02:25:49.658Z,94.40
2018-07-11T02:28:17.917Z,94.10
2018-07-11T02:30:46.194Z,94.20
2018-07-11T02:33:14.399Z,94.30
2018-07-11T02:35:42.627Z,94.70
2018-07-11T02:38:10.832Z,94.40
2018-07-11T02:43:06.986Z,94.60
2018-07-11T02:45:35.215Z,94.50
2018-07-11T02:48:03.454Z,94.50
2018-07-11T02:50:31.676Z,94.60
2018-07-11T02:53:00.364Z,94.60
2018-07-11T02:55:28.627Z,94.50
2018-07-11T02:57:56.874Z,94.70
2018-07-11T03:00:25.137Z,94.60
2018-07-11T03:02:53.366Z,94.50
2018-07-11T03:05:21.612Z,94.90
2018-07-11T03:10:17.816Z,94.50
2018-07-11T03:12:46.056Z,94.50
2018-07-11T03:15:14.326Z,94.70
2018-07-11T03:17:42.609Z,94.50
2018-07-11T03:22:38.795Z,95.00
2018-07-11T03:25:07.024Z,95.10
2018-07-11T03:27:35.237Z,94.70
2018-07-11T03:30:03.480Z,94.80
2018-07-11T03:32:31.757Z,94.90
2018-07-11T03:34:59.989Z,95.00
2018-07-11T03:37:28.228Z,94.90
2018-07-11T03:39:56.489Z,94.90
2018-07-11T03:42:24.743Z,95.20
2018-07-11T03:44:53.003Z,95.30
2018-07-11T03:47:21.218Z,95.70
2018-07-11T03:49:49.472Z,95.80
2018-07-11T03:52:17.698Z,96.10
2018-07-11T03:54:45.932Z,96.10
2018-07-11T03:57:14.173Z,96.20
2018-07-11T03:59:42.362Z,96.30
2018-07-11T04:04:38.544Z,96.50
2018-07-11T04:07:06.746Z,96.70
2018-07-11T04:09:34.976Z,96.80
2018-07-11T04:14:31.179Z,96.70
2018-07-11T04:16:59.421Z,97.10
2018-07-11T04:19:27.650Z,96.80
2018-07-11T04:21:55.850Z,96.80
2018-07-11T04:24:24.081Z,97.10
2018-07-11T04:26:52.330Z,97.20
2018-07-11T04:29:20.557Z,97.00
2018-07-11T04:31:48.790Z,97.30
2018-07-11T04:36:44.977Z,96.90
2018-07-11T04:39:13.193Z,97.00
2018-07-11T04:41:41.522Z,97.50
2018-07-11T04:44:09.816Z,97.60
2018-07-11T04:46:38.048Z,97.30
2018-07-11T04:49:06.258Z,97.90
2018-07-11T04:51:34.649Z,97.30
2018-07-11T04:54:02.835Z,97.60
2018-07-11T04:56:31.402Z,97.90
2018-07-11T04:58:59.654Z,97.90
2018-07-11T05:01:27.871Z,98.00
2018-07-11T05:03:56.114Z,98.00
2018-07-11T05:06:24.366Z,98.00
2018-07-11T05:08:52.605Z,98.00
2018-07-11T05:11:20.847Z,98.10
2018-07-11T05:13:49.086Z,98.00
2018-07-11T05:16:17.511Z,97.90
2018-07-11T05:18:45.620Z,97.70
2018-07-11T05:23:41.827Z,97.90
2018-07-11T05:26:10.052Z,97.80
2018-07-11T05:31:06.277Z,97.80
2018-07-11T05:33:34.521Z,97.80
2018-07-11T05:36:02.755Z,97.60
2018-07-11T05:38:30.991Z,97.90
2018-07-11T05:40:59.464Z,97.80
2018-07-11T05:43:27.750Z,97.60
2018-07-11T05:45:55.980Z,98.00
2018-07-11T05:48:24.428Z,98.00
2018-07-11T05:50:52.649Z,98.20
2018-07-11T05:53:20.899Z,98.20
2018-07-11T05:55:49.236Z,98.00
2018-07-11T05:58:17.420Z,98.30
2018-07-11T06:00:45.626Z,98.30
2018-07-11T06:03:13.892Z,98.30
2018-07-11T06:05:42.484Z,98.00
2018-07-11T06:08:10.768Z,98.20
2018-07-11T06:10:39.039Z,97.90
2018-07-11T06:13:07.353Z,98.00
2018-07-11T06:15:35.603Z,98.40
2018-07-11T06:18:03.888Z,98.30
2018-07-11T06:20:32.779Z,98.40
2018-07-11T06:23:01.009Z,98.00
2018-07-11T06:25:29.237Z,98.00
2018-07-11T06:27:57.542Z,98.00
2018-07-11T06:30:25.727Z,98.40
2018-07-11T06:32:53.975Z,98.20
2018-07-11T06:35:22.205Z,98.00
2018-07-11T06:37:50.559Z,98.20
2018-07-11T06:40:18.801Z,98.40
2018-07-11T06:42:47.043Z,98.40
2018-07-11T06:45:15.286Z,98.30
2018-07-11T06:47:43.517Z,98.50
2018-07-11T06:50:11.812Z,98.30
2018-07-11T06:52:40.075Z,98.10
2018-07-11T06:55:08.620Z,97.50
2018-07-11T06:57:36.924Z,97.80
2018-07-11T07:00:05.092Z,97.60
2018-07-11T07:02:33.357Z,97.30
2018-07-11T07:05:01.598Z,97.50
2018-07-11T07:07:29.793Z,97.60
2018-07-11T07:09:58.020Z,97.40
2018-07-11T07:12:26.246Z,97.20
2018-07-11T07:14:54.455Z,97.20
2018-07-11T07:17:22.664Z,96.90
2018-07-11T07:19:50.864Z,97.40
2018-07-11T07:22:19.061Z,96.80
2018-07-11T07:27:15.266Z,95.80
2018-07-11T07:29:43.499Z,95.60
2018-07-11T07:32:11.701Z,95.70
2018-07-11T07:34:40.036Z,95.70
2018-07-11T07:37:08.191Z,95.70
2018-07-11T07:39:36.393Z,95.30
2018-07-11T07:42:04.647Z,95.80
2018-07-11T07:44:32.852Z,95.10
2018-07-11T07:47:01.674Z,95.00
2018-07-11T07:49:31.194Z,94.70
2018-07-11T07:51:59.763Z,94.90
2018-07-11T07:56:56.909Z,94.00
2018-07-11T07:59:25.948Z,94.40
2018-07-11T08:01:54.207Z,94.70
2018-07-11T08:06:50.625Z,94.80
2018-07-11T08:09:18.918Z,95.10
2018-07-11T08:11:47.575Z,95.10
2018-07-11T08:14:15.840Z,94.50
2018-07-11T08:16:44.160Z,94.00
2018-07-11T08:19:12.401Z,93.90
2018-07-11T08:21:40.981Z,93.90
2018-07-11T08:26:54.172Z,94.10
2018-07-11T08:29:33.776Z,94.40
2018-07-11T08:32:40.515Z,94.90
2018-07-11T08:38:30.068Z,94.30
2018-07-11T08:41:08.422Z,93.90
2018-07-11T08:43:46.955Z,94.50
2018-07-11T08:46:28.093Z,94.60
2018-07-11T08:51:16.641Z,94.00
2018-07-11T08:54:56.658Z,93.40
2018-07-11T09:00:12.654Z,92.50
2018-07-11T09:05:07.082Z,91.90
2018-07-11T09:07:52.203Z,91.50
2018-07-11T09:11:27.759Z,91.50
2018-07-11T09:14:20.589Z,91.80
2018-07-11T09:19:01.441Z,91.50
2018-07-11T09:22:41.940Z,90.20
2018-07-11T09:25:10.566Z,90.10
2018-07-11T09:27:38.787Z,88.10
2018-07-11T09:30:07.007Z,86.40
2018-07-11T09:32:35.236Z,86.40
2018-07-11T09:35:03.426Z,87.30
2018-07-11T09:37:31.691Z,86.50
2018-07-11T09:39:59.899Z,86.70
2018-07-11T09:42:28.107Z,87.50
2018-07-11T09:44:56.331Z,87.60
2018-07-11T09:47:29.208Z,88.00
2018-07-11T09:49:57.693Z,87.10
2018-07-11T09:52:25.932Z,87.80
2018-07-11T09:57:22.216Z,87.70
2018-07-11T09:59:50.421Z,88.10
2018-07-11T10:02:18.676Z,88.00
2018-07-11T10:04:46.923Z,87.50
2018-07-11T10:09:43.093Z,87.70
2018-07-11T10:12:11.336Z,86.20
2018-07-11T10:14:39.557Z,86.80
2018-07-11T10:17:07.795Z,85.50
2018-07-11T10:19:36.019Z,85.20
2018-07-11T10:22:04.231Z,85.80
2018-07-11T10:24:32.443Z,84.80
2018-07-11T10:27:01.152Z,84.10
2018-07-11T10:34:25.310Z,85.90
2018-07-11T10:36:53.537Z,85.70
2018-07-11T10:39:21.755Z,84.80
2018-07-11T10:41:49.989Z,85.50
2018-07-11T10:44:18.227Z,85.20
2018-07-11T10:46:46.431Z,84.00
2018-07-11T10:51:42.720Z,84.50
2018-07-11T10:54:10.956Z,83.90
2018-07-11T10:56:39.208Z,85.10
2018-07-11T10:59:07.451Z,84.50
2018-07-11T11:01:36.057Z,83.30
2018-07-11T11:04:04.282Z,80.80
2018-07-11T11:06:32.589Z,82.30
2018-07-11T11:09:00.857Z,83.70
2018-07-11T11:11:29.083Z,85.40
2018-07-11T11:16:25.302Z,82.80
2018-07-11T11:18:53.572Z,81.50
2018-07-11T11:21:21.856Z,85.10
2018-07-11T11:23:50.094Z,82.30
2018-07-11T11:26:18.320Z,83.10
2018-07-11T11:28:46.576Z,84.00
2018-07-11T11:31:14.819Z,81.50
2018-07-11T11:36:11.019Z,81.00
2018-07-11T11:38:39.278Z,80.80
2018-07-11T11:41:07.620Z,79.50
2018-07-11T11:43:35.860Z,80.20
2018-07-11T11:46:04.148Z,79.70
2018-07-11T11:48:32.382Z,79.90
2018-07-11T11:53:28.613Z,77.80
2018-07-11T11:55:56.846Z,77.20
2018-07-11T11:58:25.105Z,76.90
2018-07-11T12:00:53.281Z,77.80
2018-07-11T12:03:21.496Z,76.90
2018-07-11T12:05:49.751Z,77.10
2018-07-11T12:08:17.981Z,77.20
2018-07-11T12:10:46.241Z,79.10
2018-07-11T12:13:14.434Z,78.40
2018-07-11T12:15:42.643Z,78.40
2018-07-11T12:18:10.861Z,79.10
2018-07-11T12:20:39.106Z,80.30
2018-07-11T12:23:07.325Z,79.00
2018-07-11T12:25:35.539Z,81.00
2018-07-11T12:28:03.813Z,80.20
2018-07-11T12:30:32.086Z,76.90
2018-07-11T12:33:00.315Z,79.00
2018-07-11T12:35:28.570Z,78.50
2018-07-11T12:37:56.861Z,78.30
2018-07-11T12:40:25.147Z,76.70
2018-07-11T12:42:53.372Z,75.50
2018-07-11T12:45:21.588Z,74.90
2018-07-11T12:47:55.226Z,74.30
2018-07-11T12:52:51.439Z,73.00
2018-07-11T12:55:19.716Z,71.70
2018-07-11T12:57:47.944Z,73.70
2018-07-11T13:00:16.378Z,72.30
2018-07-11T13:02:45.320Z,72.70
2018-07-11T13:05:13.556Z,73.90
2018-07-11T13:07:41.823Z,75.20
2018-07-11T13:10:10.911Z,72.90
2018-07-11T13:12:39.140Z,71.00
2018-07-11T13:15:07.357Z,69.70
2018-07-11T13:17:35.671Z,72.00
2018-07-11T13:20:03.926Z,73.70
2018-07-11T13:22:32.160Z,72.10
2018-07-11T13:25:00.382Z,72.70
2018-07-11T13:27:28.603Z,73.20
2018-07-11T13:29:56.825Z,71.00
2018-07-11T13:32:26.845Z,69.30
2018-07-11T13:34:56.045Z,65.40
2018-07-11T13:39:52.272Z,69.10
2018-07-11T13:42:20.485Z,71.10
2018-07-11T13:44:48.714Z,69.20
2018-07-11T13:47:22.399Z,68.00
2018-07-11T13:49:50.626Z,68.80
2018-07-11T13:52:18.897Z,67.90
2018-07-11T13:54:47.172Z,67.70
2018-07-11T13:57:15.894Z,68.80
2018-07-11T14:02:12.057Z,68.50
2018-07-11T14:04:40.278Z,69.80
2018-07-11T14:07:08.516Z,67.20
2018-07-11T14:09:36.702Z,69.50
2018-07-11T14:12:04.922Z,67.50
2018-07-11T14:14:33.147Z,63.80
2018-07-11T14:19:29.632Z,66.90
2018-07-11T14:21:57.854Z,68.60
2018-07-11T14:24:27.091Z,67.70
2018-07-11T14:29:26.428Z,69.30
2018-07-11T14:31:54.699Z,68.20
2018-07-11T14:34:22.931Z,66.70
2018-07-11T14:36:51.183Z,67.50
2018-07-11T14:39:19.394Z,67.30
2018-07-11T14:41:47.614Z,70.10
2018-07-11T14:44:16.295Z,71.80
2018-07-11T14:46:44.509Z,71.50
2018-07-11T14:49:14.926Z,71.50
2018-07-11T14:51:43.208Z,70.40
2018-07-11T14:54:11.438Z,70.40
2018-07-11T14:56:39.717Z,69.90
2018-07-11T14:59:07.962Z,70.60
2018-07-11T15:01:36.208Z,70.90
2018-07-11T15:04:04.483Z,73.00
2018-07-11T15:06:32.738Z,72.00
2018-07-11T15:09:01.107Z,71.10
2018-07-11T15:11:29.264Z,72.40
2018-07-11T15:13:57.519Z,73.60
2018-07-11T15:16:25.744Z,73.30
2018-07-11T15:21:29.349Z,70.70
2018-07-11T15:23:57.578Z,73.00
2018-07-11T15:26:26.125Z,73.90
2018-07-11T15:28:54.599Z,69.80
2018-07-11T15:31:23.221Z,69.60
2018-07-11T15:33:51.750Z,65.00
2018-07-11T15:36:20.012Z,67.00
2018-07-11T15:38:48.260Z,66.80
2018-07-11T15:41:17.159Z,65.10
2018-07-11T15:43:46.334Z,66.10
2018-07-11T15:46:14.603Z,65.10
2018-07-11T15:48:42.875Z,64.10
2018-07-11T15:51:11.143Z,65.10
2018-07-11T15:53:39.397Z,67.30
2018-07-11T15:56:07.616Z,67.20
2018-07-11T15:58:37.136Z,66.10
2018-07-11T16:01:07.768Z,66.70
2018-07-11T16:03:37.285Z,65.80
2018-07-11T16:06:07.180Z,67.50
2018-07-11T16:11:03.801Z,68.00
2018-07-11T16:13:32.460Z,68.80
2018-07-11T16:16:00.670Z,68.90
2018-07-11T16:18:29.213Z,69.10
2018-07-11T16:20:57.413Z,69.10
2018-07-11T16:23:25.623Z,68.60
2018-07-11T16:25:53.843Z,66.70
2018-07-11T16:30:50.019Z,67.50
2018-07-11T16:33:18.226Z,66.60
2018-07-11T16:35:46.450Z,67.30
2018-07-11T16:38:14.686Z,67.00
2018-07-11T16:40:42.937Z,68.30
2018-07-11T16:43:11.169Z,68.00
2018-07-11T16:45:39.397Z,67.60
2018-07-11T16:48:07.602Z,66.90
2018-07-11T16:50:35.820Z,66.20
2018-07-11T16:53:04.039Z,67.80
2018-07-11T16:55:33.529Z,67.80
2018-07-11T16:58:01.813Z,67.60
2018-07-11T17:00:31.515Z,68.90
2018-07-11T17:03:05.690Z,68.10
2018-07-11T17:05:40.084Z,66.90
2018-07-11T17:08:08.365Z,68.60
2018-07-11T17:10:39.528Z,70.10
2018-07-11T17:13:10.441Z,68.60
2018-07-11T17:15:39.313Z,69.20
2018-07-11T17:20:35.979Z,70.70
2018-07-11T17:23:05.783Z,71.00
2018-07-11T17:25:41.255Z,70.40
2018-07-11T17:28:09.500Z,69.90
2018-07-11T17:30:40.384Z,70.20
2018-07-11T17:33:09.657Z,69.40
2018-07-11T17:35:43.782Z,70.40
2018-07-11T17:38:12.027Z,71.20
2018-07-11T17:40:40.459Z,71.00
2018-07-11T17:43:10.368Z,71.10
2018-07-11T17:45:39.051Z,70.00
2018-07-11T17:51:45.301Z,70.70
2018-07-11T17:54:13.560Z,70.40
2018-07-11T17:56:48.810Z,71.00
2018-07-11T17:59:21.473Z,71.10
2018-07-11T18:01:51.193Z,71.30
2018-07-11T18:04:59.225Z,71.50
2018-07-11T18:07:37.901Z,71.70
2018-07-11T18:10:07.005Z,72.40
2018-07-11T18:12:40.809Z,73.30
2018-07-11T18:15:26.133Z,73.70
2018-07-11T18:18:01.987Z,74.00
2018-07-11T18:21:36.758Z,73.40
2018-07-11T18:24:13.277Z,75.30
2018-07-11T18:27:51.767Z,75.50
2018-07-11T18:32:32.939Z,76.40
2018-07-11T18:37:54.864Z,76.80
2018-07-11T18:40:52.408Z,77.10
2018-07-11T18:43:33.173Z,77.10
2018-07-11T18:46:13.784Z,78.30
2018-07-11T18:49:04.821Z,77.80
2018-07-11T18:51:43.376Z,78.40
2018-07-11T18:54:15.747Z,79.70
2018-07-11T18:56:55.848Z,79.30
2018-07-11T18:59:40.040Z,80.40
2018-07-11T19:02:14.011Z,81.60
2018-07-11T19:07:53.452Z,80.90
2018-07-11T19:10:32.193Z,81.30
2018-07-11T19:13:00.486Z,83.50
2018-07-11T19:15:52.822Z,83.40
2018-07-11T19:18:23.719Z,82.30
2018-07-11T19:21:02.354Z,82.60
2018-07-11T19:23:41.775Z,82.60
2018-07-11T19:26:20.696Z,83.40
2018-07-11T19:28:54.449Z,82.80
2018-07-11T19:31:33.981Z,81.70
2018-07-11T19:34:21.084Z,82.10
2018-07-11T19:36:59.690Z,81.90
2018-07-11T19:39:53.052Z,82.80
2018-07-11T19:42:35.495Z,82.60
2018-07-11T19:45:15.596Z,82.80
2018-07-11T19:47:57.098Z,83.60
2018-07-11T19:50:34.339Z,84.40
2018-07-11T19:55:19.852Z,84.60
2018-07-11T19:57:48.070Z,84.40
2018-07-11T20:00:16.320Z,84.30
2018-07-11T20:05:12.465Z,84.10
2018-07-11T20:07:40.694Z,84.30
2018-07-11T20:10:08.919Z,84.60
2018-07-11T20:12:37.136Z,84.90
2018-07-11T20:15:05.324Z,84.60
2018-07-11T20:17:33.543Z,85.90
2018-07-11T20:20:01.715Z,85.40
2018-07-11T20:22:29.912Z,87.20
2018-07-11T20:24:58.131Z,87.20
2018-07-11T20:27:26.323Z,87.30
2018-07-11T20:29:54.553Z,88.30
2018-07-11T20:32:22.756Z,89.50
2018-07-11T20:37:18.910Z,90.70
2018-07-11T20:39:47.133Z,91.40
2018-07-11T20:42:15.352Z,91.10
2018-07-11T20:44:43.560Z,91.10
2018-07-11T20:47:11.778Z,90.80
2018-07-11T20:49:40.001Z,91.30
2018-07-11T20:54:36.146Z,92.30
2018-07-11T20:57:04.316Z,92.10
2018-07-11T21:00:43.754Z,92.00
2018-07-11T21:03:23.264Z,91.80
2018-07-11T21:08:09.962Z,91.10
2018-07-11T21:10:55.668Z,91.10
2018-07-11T21:13:35.618Z,91.00
2018-07-11T21:17:16.085Z,90.90
2018-07-11T21:19:44.312Z,92.00
2018-07-11T21:22:12.502Z,92.30
2018-07-11T21:24:40.710Z,92.50
2018-07-11T21:27:08.922Z,92.60
2018-07-11T21:29:37.116Z,92.60
2018-07-11T21:32:05.524Z,93.00
2018-07-11T21:34:33.713Z,93.00
2018-07-11T21:37:01.905Z,92.70
2018-07-11T21:41:58.047Z,93.50
2018-07-11T21:44:26.243Z,93.60
2018-07-11T21:49:23.119Z,94.60
2018-07-11T21:51:51.689Z,94.60
2018-07-11T21:56:47.905Z,94.60
2018-07-11T21:59:16.212Z,94.50
2018-07-11T22:01:44.404Z,94.90
2018-07-11T22:04:12.605Z,94.40
2018-07-11T22:06:40.874Z,93.90
2018-07-11T22:11:37.029Z,92.90
2018-07-11T22:14:05.236Z,93.00
2018-07-11T22:16:33.401Z,93.00
2018-07-11T22:19:01.601Z,93.60
2018-07-11T22:21:28.809Z,94.10
2018-07-11T22:23:56.012Z,94.00
2018-07-11T22:26:23.240Z,94.00
2018-07-11T22:28:50.430Z,93.80
2018-07-11T22:31:17.632Z,93.40
2018-07-11T22:33:44.867Z,93.20
2018-07-11T22:36:12.059Z,93.70
2018-07-11T22:43:34.200Z,93.70
2018-07-11T22:46:01.405Z,94.10
2018-07-11T22:48:28.602Z,94.40
2018-07-11T22:50:55.796Z,94.70
2018-07-11T22:53:22.993Z,95.50
2018-07-11T22:55:50.226Z,95.20
2018-07-11T22:58:17.433Z,94.70
2018-07-11T23:00:44.670Z,94.00
2018-07-11T23:03:11.860Z,93.80
2018-07-11T23:05:39.076Z,93.60
2018-07-11T23:08:06.304Z,93.50
2018-07-11T23:10:33.464Z,93.60
2018-07-11T23:13:00.672Z,93.60
2018-07-11T23:15:27.884Z,93.70
2018-07-11T23:17:55.064Z,93.50
2018-07-11T23:20:22.315Z,93.60
2018-07-11T23:22:49.489Z,93.80
2018-07-11T23:25:16.709Z,94.00
2018-07-11T23:27:43.912Z,94.20
2018-07-11T23:30:11.099Z,94.30
2018-07-11T23:32:38.290Z,94.40
2018-07-11T23:35:05.503Z,94.80
2018-07-11T23:37:32.713Z,94.60
2018-07-11T23:39:59.913Z,95.00
2018-07-11T23:42:27.146Z,94.70
2018-07-11T23:44:54.345Z,94.50
2018-07-11T23:52:16.456Z,94.40
2018-07-11T23:54:43.636Z,94.10
2018-07-11T23:57:10.865Z,94.10
2018-07-11T23:59:38.061Z,94.10
